AAA64 YMML-YWLM
Flight info
| Callsign | AAA64 |
|---|---|
| Flight time | 1h 25m |
| Altitude | 35000 |
| Route | ML H129 DOSEL Y59 TESAT H252 EKIPU DCT WLM |
| Aircraft | B722/M-SDFGHRWY/C |
Departure
| Time | 2026-04-21 09:07 |
|---|---|
| Airport | Melbourne Airport (YMML) |
Arrival
| Time | 2026-04-21 10:32 |
|---|---|
| Airport | Newcastle Airport (YWLM) |
| Time | Latitude | Longitude | Altitude | Speed | Heading |
|---|---|---|---|---|---|
| 2026-04-21 08:30 | -37.67823 | 144.84789 | 373 ft | 0 kts | 172° |
| 2026-04-21 08:31 | -37.67822 | 144.84789 | 374 ft | 0 kts | 172° |
| 2026-04-21 08:32 | -37.67823 | 144.84789 | 373 ft | 0 kts | 172° |
| 2026-04-21 08:52 | -37.67812 | 144.84787 | 374 ft | 2 kts | 172° |
| 2026-04-21 08:52 | -37.67796 | 144.84785 | 374 ft | 2 kts | 174° |
| 2026-04-21 08:53 | -37.67779 | 144.84783 | 375 ft | 2 kts | 177° |
| 2026-04-21 08:53 | -37.67763 | 144.84783 | 375 ft | 2 kts | 182° |
| 2026-04-21 08:53 | -37.67746 | 144.84785 | 376 ft | 2 kts | 192° |
| 2026-04-21 08:53 | -37.67731 | 144.84793 | 377 ft | 2 kts | 218° |
| 2026-04-21 08:54 | -37.67723 | 144.84809 | 377 ft | 1 kts | 253° |
| 2026-04-21 08:54 | -37.67722 | 144.84814 | 377 ft | 0 kts | 258° |
| 2026-04-21 09:00 | -37.67724 | 144.84803 | 377 ft | 6 kts | 258° |
| 2026-04-21 09:01 | -37.67736 | 144.84712 | 375 ft | 14 kts | 262° |
| 2026-04-21 09:01 | -37.67783 | 144.84577 | 372 ft | 20 kts | 229° |
| 2026-04-21 09:01 | -37.67827 | 144.84413 | 370 ft | 14 kts | 294° |
| 2026-04-21 09:01 | -37.67747 | 144.84384 | 376 ft | 13 kts | 6° |
| 2026-04-21 09:02 | -37.67658 | 144.84374 | 374 ft | 13 kts | 339° |
| 2026-04-21 09:02 | -37.67559 | 144.84337 | 377 ft | 17 kts | 351° |
| 2026-04-21 09:02 | -37.67431 | 144.84313 | 381 ft | 20 kts | 352° |
| 2026-04-21 09:03 | -37.67150 | 144.84261 | 391 ft | 21 kts | 352° |
| 2026-04-21 09:03 | -37.66998 | 144.84232 | 393 ft | 22 kts | 352° |
| 2026-04-21 09:03 | -37.66848 | 144.84203 | 398 ft | 22 kts | 352° |
| 2026-04-21 09:03 | -37.66703 | 144.84177 | 407 ft | 21 kts | 351° |
| 2026-04-21 09:04 | -37.66569 | 144.84200 | 410 ft | 19 kts | 41° |
| 2026-04-21 09:04 | -37.66521 | 144.84352 | 415 ft | 19 kts | 80° |
| 2026-04-21 09:04 | -37.66500 | 144.84525 | 415 ft | 21 kts | 82° |
| 2026-04-21 09:04 | -37.66481 | 144.84685 | 418 ft | 16 kts | 82° |
| 2026-04-21 09:05 | -37.66452 | 144.84778 | 417 ft | 8 kts | 20° |
| 2026-04-21 09:05 | -37.66399 | 144.84786 | 416 ft | 0 kts | 1° |
| 2026-04-21 09:05 | -37.66388 | 144.84786 | 419 ft | 5 kts | 1° |
| 2026-04-21 09:05 | -37.66324 | 144.84789 | 420 ft | 14 kts | 2° |
| 2026-04-21 09:06 | -37.66239 | 144.84764 | 418 ft | 13 kts | 309° |
| 2026-04-21 09:06 | -37.66219 | 144.84686 | 420 ft | 0 kts | 274° |
| 2026-04-21 09:06 | -37.66218 | 144.84667 | 420 ft | 12 kts | 274° |
| 2026-04-21 09:06 | -37.66194 | 144.84258 | 416 ft | 82 kts | 274° |
| 2026-04-21 09:07 | -37.66139 | 144.83275 | 411 ft | 140 kts | 274° |
| 2026-04-21 09:07 | -37.66069 | 144.81863 | 567 ft | 175 kts | 275° |
| 2026-04-21 09:07 | -37.66007 | 144.80273 | 1122 ft | 182 kts | 276° |
| 2026-04-21 09:07 | -37.65934 | 144.78704 | 1908 ft | 179 kts | 277° |
| 2026-04-21 09:08 | -37.65856 | 144.77091 | 2479 ft | 189 kts | 275° |
| 2026-04-21 09:08 | -37.65814 | 144.75406 | 3097 ft | 192 kts | 274° |
| 2026-04-21 09:08 | -37.65695 | 144.73715 | 3616 ft | 189 kts | 279° |
| 2026-04-21 09:08 | -37.65548 | 144.72189 | 3890 ft | 165 kts | 279° |
| 2026-04-21 09:09 | -37.65379 | 144.70648 | 4063 ft | 186 kts | 279° |
| 2026-04-21 09:09 | -37.65257 | 144.68939 | 4419 ft | 202 kts | 274° |
| 2026-04-21 09:09 | -37.65068 | 144.67141 | 4781 ft | 213 kts | 290° |
| 2026-04-21 09:09 | -37.64204 | 144.65582 | 5138 ft | 223 kts | 317° |
| 2026-04-21 09:10 | -37.62827 | 144.64605 | 5488 ft | 234 kts | 338° |
| 2026-04-21 09:10 | -37.61201 | 144.64015 | 5864 ft | 256 kts | 345° |
| 2026-04-21 09:10 | -37.59409 | 144.63439 | 6515 ft | 267 kts | 343° |
| 2026-04-21 09:10 | -37.57596 | 144.62777 | 7326 ft | 275 kts | 344° |
| 2026-04-21 09:11 | -37.55680 | 144.62576 | 8222 ft | 281 kts | 5° |
| 2026-04-21 09:11 | -37.53789 | 144.63252 | 9072 ft | 288 kts | 26° |
| 2026-04-21 09:11 | -37.52166 | 144.64746 | 9918 ft | 293 kts | 45° |
| 2026-04-21 09:11 | -37.50826 | 144.66696 | 10711 ft | 297 kts | 54° |
| 2026-04-21 09:12 | -37.49647 | 144.68848 | 11481 ft | 300 kts | 56° |
| 2026-04-21 09:12 | -37.48427 | 144.70999 | 12249 ft | 303 kts | 53° |
| 2026-04-21 09:12 | -37.47163 | 144.73139 | 13001 ft | 306 kts | 56° |
| 2026-04-21 09:12 | -37.46037 | 144.75437 | 13694 ft | 311 kts | 62° |
| 2026-04-21 09:13 | -37.45020 | 144.77867 | 14319 ft | 316 kts | 63° |
| 2026-04-21 09:13 | -37.43943 | 144.80314 | 14907 ft | 321 kts | 60° |
| 2026-04-21 09:13 | -37.42796 | 144.82740 | 15504 ft | 325 kts | 60° |
| 2026-04-21 09:13 | -37.41643 | 144.85201 | 16116 ft | 328 kts | 61° |
| 2026-04-21 09:14 | -37.40508 | 144.87697 | 16736 ft | 328 kts | 61° |
| 2026-04-21 09:14 | -37.39391 | 144.90153 | 17327 ft | 318 kts | 61° |
| 2026-04-21 09:14 | -37.38296 | 144.92526 | 17636 ft | 318 kts | 61° |
| 2026-04-21 09:14 | -37.37183 | 144.94934 | 17889 ft | 319 kts | 61° |
| 2026-04-21 09:15 | -37.36073 | 144.97346 | 18252 ft | 315 kts | 61° |
| 2026-04-21 09:15 | -37.34967 | 144.99749 | 18436 ft | 321 kts | 61° |
| 2026-04-21 09:15 | -37.33839 | 145.02196 | 18718 ft | 324 kts | 61° |
| 2026-04-21 09:15 | -37.32709 | 145.04642 | 19156 ft | 325 kts | 61° |
| 2026-04-21 09:16 | -37.31567 | 145.07114 | 19487 ft | 329 kts | 61° |
| 2026-04-21 09:16 | -37.30413 | 145.09612 | 19793 ft | 334 kts | 61° |
| 2026-04-21 09:16 | -37.29236 | 145.12157 | 20070 ft | 339 kts | 61° |
| 2026-04-21 09:16 | -37.28033 | 145.14755 | 20350 ft | 350 kts | 61° |
| 2026-04-21 09:17 | -37.26807 | 145.17398 | 20988 ft | 350 kts | 61° |
| 2026-04-21 09:17 | -37.25577 | 145.20051 | 21561 ft | 354 kts | 61° |
| 2026-04-21 09:17 | -37.24329 | 145.22739 | 22105 ft | 358 kts | 61° |
| 2026-04-21 09:17 | -37.23068 | 145.25453 | 22683 ft | 361 kts | 61° |
| 2026-04-21 09:18 | -37.21796 | 145.28189 | 23247 ft | 365 kts | 61° |
| 2026-04-21 09:18 | -37.20513 | 145.30947 | 23782 ft | 368 kts | 61° |
| 2026-04-21 09:18 | -37.19214 | 145.33735 | 24242 ft | 372 kts | 61° |
| 2026-04-21 09:18 | -37.17902 | 145.36550 | 24716 ft | 374 kts | 61° |
| 2026-04-21 09:19 | -37.16577 | 145.39373 | 25169 ft | 377 kts | 60° |
| 2026-04-21 09:19 | -37.15156 | 145.42103 | 25602 ft | 380 kts | 55° |
| 2026-04-21 09:19 | -37.13553 | 145.44756 | 26044 ft | 383 kts | 53° |
| 2026-04-21 09:19 | -37.11931 | 145.47427 | 26481 ft | 386 kts | 55° |
| 2026-04-21 09:20 | -37.10380 | 145.50183 | 26916 ft | 388 kts | 56° |
| 2026-04-21 09:20 | -37.08833 | 145.52971 | 27350 ft | 391 kts | 56° |
| 2026-04-21 09:20 | -37.07235 | 145.55740 | 27762 ft | 394 kts | 54° |
| 2026-04-21 09:20 | -37.05611 | 145.58508 | 28181 ft | 396 kts | 54° |
| 2026-04-21 09:21 | -37.03995 | 145.61313 | 28578 ft | 399 kts | 55° |
| 2026-04-21 09:21 | -37.02377 | 145.64151 | 28968 ft | 402 kts | 55° |
| 2026-04-21 09:21 | -37.00741 | 145.66997 | 29361 ft | 404 kts | 54° |
| 2026-04-21 09:21 | -36.99087 | 145.69845 | 29748 ft | 407 kts | 54° |
| 2026-04-21 09:22 | -36.97422 | 145.72721 | 30110 ft | 409 kts | 54° |
| 2026-04-21 09:22 | -36.95753 | 145.75618 | 30467 ft | 412 kts | 54° |
| 2026-04-21 09:22 | -36.94069 | 145.78533 | 30776 ft | 414 kts | 54° |
| 2026-04-21 09:22 | -36.92372 | 145.81458 | 31077 ft | 417 kts | 54° |
| 2026-04-21 09:23 | -36.90666 | 145.84399 | 31375 ft | 420 kts | 54° |
| 2026-04-21 09:23 | -36.89525 | 145.86366 | 31591 ft | 422 kts | 54° |
| 2026-04-21 09:23 | -36.87798 | 145.89344 | 31917 ft | 424 kts | 54° |
| 2026-04-21 09:23 | -36.86062 | 145.92332 | 32228 ft | 427 kts | 54° |
| 2026-04-21 09:24 | -36.84310 | 145.95344 | 32533 ft | 429 kts | 54° |
| 2026-04-21 09:24 | -36.82554 | 145.98361 | 32836 ft | 432 kts | 54° |
| 2026-04-21 09:24 | -36.80780 | 146.01406 | 33129 ft | 434 kts | 54° |
| 2026-04-21 09:24 | -36.79000 | 146.04460 | 33420 ft | 437 kts | 54° |
| 2026-04-21 09:25 | -36.77209 | 146.07528 | 33706 ft | 439 kts | 54° |
| 2026-04-21 09:25 | -36.75409 | 146.10610 | 33989 ft | 441 kts | 54° |
| 2026-04-21 09:25 | -36.73592 | 146.13717 | 34266 ft | 443 kts | 54° |
| 2026-04-21 09:25 | -36.71773 | 146.16827 | 34510 ft | 446 kts | 54° |
| 2026-04-21 09:26 | -36.69941 | 146.19955 | 34737 ft | 448 kts | 54° |
| 2026-04-21 09:26 | -36.68096 | 146.23101 | 34965 ft | 450 kts | 54° |
| 2026-04-21 09:26 | -36.66246 | 146.26253 | 35172 ft | 452 kts | 54° |
| 2026-04-21 09:26 | -36.64382 | 146.29427 | 35307 ft | 457 kts | 54° |
| 2026-04-21 09:27 | -36.60580 | 146.35892 | 35492 ft | 467 kts | 54° |
| 2026-04-21 09:27 | -36.58635 | 146.39193 | 35358 ft | 478 kts | 54° |
| 2026-04-21 09:27 | -36.56676 | 146.42517 | 35326 ft | 485 kts | 54° |
| 2026-04-21 09:28 | -36.52651 | 146.49332 | 35330 ft | 492 kts | 54° |
| 2026-04-21 09:28 | -36.48572 | 146.56226 | 35330 ft | 496 kts | 54° |
| 2026-04-21 09:29 | -36.44485 | 146.63118 | 35323 ft | 494 kts | 54° |
| 2026-04-21 09:29 | -36.40439 | 146.69929 | 35322 ft | 482 kts | 54° |
| 2026-04-21 09:30 | -36.36443 | 146.76644 | 35319 ft | 486 kts | 54° |
| 2026-04-21 09:30 | -36.32412 | 146.83400 | 35324 ft | 487 kts | 54° |
| 2026-04-21 09:31 | -36.28384 | 146.90142 | 35328 ft | 487 kts | 54° |
| 2026-04-21 09:31 | -36.24350 | 146.96879 | 35328 ft | 487 kts | 54° |
| 2026-04-21 09:32 | -36.20339 | 147.03563 | 35333 ft | 487 kts | 54° |
| 2026-04-21 09:32 | -36.16292 | 147.10296 | 35332 ft | 487 kts | 54° |
| 2026-04-21 09:33 | -36.12232 | 147.17034 | 35333 ft | 488 kts | 54° |
| 2026-04-21 09:33 | -36.08176 | 147.23757 | 35326 ft | 488 kts | 54° |
| 2026-04-21 09:34 | -36.04111 | 147.30475 | 35334 ft | 488 kts | 54° |
| 2026-04-21 09:34 | -36.00042 | 147.37193 | 35334 ft | 488 kts | 54° |
| 2026-04-21 09:35 | -35.95967 | 147.43903 | 35333 ft | 488 kts | 54° |
| 2026-04-21 09:35 | -35.91887 | 147.50612 | 35331 ft | 489 kts | 54° |
| 2026-04-21 09:36 | -35.87820 | 147.57284 | 35327 ft | 489 kts | 54° |
| 2026-04-21 09:36 | -35.83731 | 147.63980 | 35327 ft | 489 kts | 54° |
| 2026-04-21 09:37 | -35.79633 | 147.70677 | 35334 ft | 489 kts | 54° |
| 2026-04-21 09:37 | -35.75529 | 147.77372 | 35336 ft | 490 kts | 54° |
| 2026-04-21 09:38 | -35.71420 | 147.84062 | 35342 ft | 490 kts | 54° |
| 2026-04-21 09:38 | -35.67304 | 147.90747 | 35346 ft | 490 kts | 54° |
| 2026-04-21 09:39 | -35.63190 | 147.97420 | 35347 ft | 490 kts | 54° |
| 2026-04-21 09:39 | -35.59086 | 148.04062 | 35360 ft | 490 kts | 54° |
| 2026-04-21 09:40 | -35.54951 | 148.10742 | 35354 ft | 491 kts | 54° |
| 2026-04-21 09:40 | -35.50809 | 148.17419 | 35360 ft | 491 kts | 54° |
| 2026-04-21 09:41 | -35.46666 | 148.24089 | 35371 ft | 492 kts | 54° |
| 2026-04-21 09:41 | -35.42510 | 148.30762 | 35372 ft | 492 kts | 54° |
| 2026-04-21 09:42 | -35.38352 | 148.37429 | 35375 ft | 491 kts | 54° |
| 2026-04-21 09:42 | -35.34190 | 148.44087 | 35376 ft | 492 kts | 54° |
| 2026-04-21 09:43 | -35.30026 | 148.50738 | 35375 ft | 492 kts | 54° |
| 2026-04-21 09:43 | -35.25854 | 148.57385 | 35387 ft | 492 kts | 54° |
| 2026-04-21 09:44 | -35.21702 | 148.63992 | 35383 ft | 492 kts | 54° |
| 2026-04-21 09:44 | -35.17520 | 148.70631 | 35387 ft | 493 kts | 54° |
| 2026-04-21 09:45 | -35.13338 | 148.77275 | 35390 ft | 492 kts | 54° |
| 2026-04-21 09:45 | -35.09151 | 148.83892 | 35395 ft | 493 kts | 53° |
| 2026-04-21 09:46 | -35.04934 | 148.90494 | 35391 ft | 493 kts | 53° |
| 2026-04-21 09:46 | -35.00718 | 148.97035 | 35396 ft | 493 kts | 53° |
| 2026-04-21 09:47 | -34.96445 | 149.03604 | 35397 ft | 494 kts | 53° |
| 2026-04-21 09:47 | -34.92147 | 149.10151 | 35396 ft | 494 kts | 53° |
| 2026-04-21 09:48 | -34.87825 | 149.16674 | 35398 ft | 494 kts | 52° |
| 2026-04-21 09:48 | -34.83481 | 149.23167 | 35400 ft | 494 kts | 52° |
| 2026-04-21 09:49 | -34.79210 | 149.29728 | 35400 ft | 493 kts | 58° |
| 2026-04-21 09:49 | -34.75519 | 149.36749 | 35399 ft | 493 kts | 59° |
| 2026-04-21 09:50 | -34.71363 | 149.43331 | 35407 ft | 495 kts | 53° |
| 2026-04-21 09:50 | -34.67196 | 149.49987 | 35405 ft | 494 kts | 55° |
| 2026-04-21 09:51 | -34.63071 | 149.56676 | 35407 ft | 494 kts | 55° |
| 2026-04-21 09:51 | -34.58949 | 149.63356 | 35408 ft | 494 kts | 55° |
| 2026-04-21 09:52 | -34.54847 | 149.70001 | 35405 ft | 494 kts | 55° |
| 2026-04-21 09:52 | -34.50727 | 149.76673 | 35404 ft | 494 kts | 55° |
| 2026-04-21 09:53 | -34.46609 | 149.83340 | 35405 ft | 494 kts | 55° |
| 2026-04-21 09:53 | -34.42484 | 149.90014 | 35406 ft | 495 kts | 55° |
| 2026-04-21 09:54 | -34.38358 | 149.96684 | 35408 ft | 494 kts | 55° |
| 2026-04-21 09:54 | -34.34231 | 150.03352 | 35404 ft | 495 kts | 55° |
| 2026-04-21 09:55 | -34.30104 | 150.10019 | 35406 ft | 495 kts | 55° |
| 2026-04-21 09:55 | -34.25976 | 150.16689 | 35399 ft | 495 kts | 55° |
| 2026-04-21 09:56 | -34.21847 | 150.23356 | 35395 ft | 495 kts | 55° |
| 2026-04-21 09:56 | -34.17717 | 150.30021 | 35389 ft | 496 kts | 55° |
| 2026-04-21 09:57 | -34.13612 | 150.36641 | 35392 ft | 496 kts | 56° |
| 2026-04-21 09:57 | -34.09482 | 150.43298 | 35390 ft | 496 kts | 55° |
| 2026-04-21 09:58 | -34.05343 | 150.49968 | 35379 ft | 496 kts | 56° |
| 2026-04-21 09:58 | -34.01208 | 150.56628 | 35386 ft | 496 kts | 56° |
| 2026-04-21 09:59 | -33.97069 | 150.63293 | 35376 ft | 497 kts | 56° |
| 2026-04-21 09:59 | -33.92934 | 150.69949 | 35383 ft | 496 kts | 56° |
| 2026-04-21 10:00 | -33.88797 | 150.76606 | 35360 ft | 497 kts | 56° |
| 2026-04-21 10:00 | -33.84660 | 150.83259 | 35359 ft | 497 kts | 56° |
| 2026-04-21 10:01 | -33.80519 | 150.89915 | 35363 ft | 497 kts | 56° |
| 2026-04-21 10:01 | -33.76376 | 150.96569 | 35362 ft | 497 kts | 56° |
| 2026-04-21 10:02 | -33.70220 | 151.06600 | 35357 ft | 496 kts | 58° |
| 2026-04-21 10:02 | -33.68493 | 151.10154 | 35342 ft | 490 kts | 72° |
| 2026-04-21 10:03 | -33.67727 | 151.14083 | 35357 ft | 479 kts | 92° |
| 2026-04-21 10:03 | -33.68068 | 151.17985 | 35354 ft | 466 kts | 110° |
| 2026-04-21 10:03 | -33.69128 | 151.21572 | 35357 ft | 459 kts | 119° |
| 2026-04-21 10:04 | -33.72040 | 151.28314 | 35349 ft | 454 kts | 124° |
| 2026-04-21 10:04 | -33.75096 | 151.34949 | 35353 ft | 454 kts | 124° |
| 2026-04-21 10:05 | -33.78068 | 151.41637 | 35341 ft | 458 kts | 117° |
| 2026-04-21 10:05 | -33.78746 | 151.45427 | 35349 ft | 473 kts | 97° |
| 2026-04-21 10:05 | -33.78316 | 151.49395 | 35344 ft | 488 kts | 76° |
| 2026-04-21 10:05 | -33.76830 | 151.53087 | 35357 ft | 495 kts | 62° |
| 2026-04-21 10:06 | -33.75133 | 151.56688 | 35342 ft | 494 kts | 66° |
| 2026-04-21 10:06 | -33.72006 | 151.64023 | 35337 ft | 494 kts | 66° |
| 2026-04-21 10:07 | -33.68838 | 151.71348 | 35229 ft | 495 kts | 66° |
| 2026-04-21 10:07 | -33.67289 | 151.74922 | 34769 ft | 482 kts | 66° |
| 2026-04-21 10:07 | -33.65757 | 151.78440 | 34291 ft | 469 kts | 66° |
| 2026-04-21 10:07 | -33.64262 | 151.81856 | 33749 ft | 457 kts | 66° |
| 2026-04-21 10:08 | -33.62795 | 151.85195 | 33209 ft | 446 kts | 66° |
| 2026-04-21 10:08 | -33.61272 | 151.88388 | 32677 ft | 439 kts | 57° |
| 2026-04-21 10:08 | -33.59108 | 151.90926 | 32095 ft | 431 kts | 34° |
| 2026-04-21 10:08 | -33.56495 | 151.92503 | 31439 ft | 414 kts | 22° |
| 2026-04-21 10:09 | -33.53747 | 151.93647 | 30099 ft | 420 kts | 15° |
| 2026-04-21 10:09 | -33.50955 | 151.94589 | 29121 ft | 412 kts | 15° |
| 2026-04-21 10:09 | -33.48215 | 151.95505 | 28184 ft | 404 kts | 15° |
| 2026-04-21 10:09 | -33.45560 | 151.96392 | 27244 ft | 398 kts | 15° |
| 2026-04-21 10:10 | -33.42909 | 151.97267 | 26326 ft | 392 kts | 15° |
| 2026-04-21 10:10 | -33.40299 | 151.98126 | 25477 ft | 385 kts | 15° |
| 2026-04-21 10:10 | -33.37730 | 151.98964 | 24639 ft | 380 kts | 15° |
| 2026-04-21 10:10 | -33.35194 | 151.99779 | 23811 ft | 374 kts | 14° |
| 2026-04-21 10:11 | -33.32646 | 152.00199 | 22838 ft | 366 kts | 354° |
| 2026-04-21 10:11 | -33.30251 | 151.99408 | 21954 ft | 352 kts | 327° |
| 2026-04-21 10:11 | -33.28463 | 151.97549 | 21065 ft | 335 kts | 300° |
| 2026-04-21 10:11 | -33.27739 | 151.95955 | 20494 ft | 326 kts | 288° |
| 2026-04-21 10:12 | -33.27036 | 151.93413 | 19640 ft | 319 kts | 279° |
| 2026-04-21 10:12 | -33.26572 | 151.90844 | 18838 ft | 314 kts | 277° |
| 2026-04-21 10:12 | -33.26148 | 151.88296 | 17972 ft | 311 kts | 277° |
| 2026-04-21 10:12 | -33.25781 | 151.85767 | 17098 ft | 307 kts | 276° |
| 2026-04-21 10:13 | -33.25077 | 151.83359 | 16203 ft | 312 kts | 298° |
| 2026-04-21 10:13 | -33.23799 | 151.81311 | 15378 ft | 313 kts | 311° |
| 2026-04-21 10:13 | -33.22055 | 151.79745 | 14586 ft | 314 kts | 327° |
| 2026-04-21 10:13 | -33.20124 | 151.78534 | 13805 ft | 312 kts | 332° |
| 2026-04-21 10:14 | -33.18206 | 151.77393 | 13265 ft | 301 kts | 332° |
| 2026-04-21 10:14 | -33.16366 | 151.76337 | 12877 ft | 287 kts | 336° |
| 2026-04-21 10:14 | -33.14567 | 151.75418 | 12450 ft | 276 kts | 329° |
| 2026-04-21 10:14 | -33.12996 | 151.74179 | 12012 ft | 266 kts | 320° |
| 2026-04-21 10:15 | -33.11540 | 151.72852 | 11592 ft | 261 kts | 320° |
| 2026-04-21 10:15 | -33.10051 | 151.71650 | 11167 ft | 256 kts | 330° |
| 2026-04-21 10:15 | -33.08442 | 151.70772 | 10756 ft | 252 kts | 336° |
| 2026-04-21 10:15 | -33.06843 | 151.69945 | 10353 ft | 249 kts | 335° |
| 2026-04-21 10:16 | -33.05352 | 151.68924 | 9854 ft | 247 kts | 322° |
| 2026-04-21 10:16 | -33.04004 | 151.67722 | 9425 ft | 243 kts | 321° |
| 2026-04-21 10:16 | -33.02657 | 151.66513 | 8989 ft | 241 kts | 321° |
| 2026-04-21 10:16 | -33.01305 | 151.65346 | 8557 ft | 239 kts | 324° |
| 2026-04-21 10:17 | -32.99931 | 151.64193 | 7915 ft | 246 kts | 323° |
| 2026-04-21 10:17 | -32.98517 | 151.62999 | 7245 ft | 251 kts | 323° |
| 2026-04-21 10:17 | -32.97080 | 151.61784 | 6564 ft | 255 kts | 323° |
| 2026-04-21 10:17 | -32.95624 | 151.60553 | 5866 ft | 258 kts | 323° |
| 2026-04-21 10:18 | -32.94229 | 151.59210 | 5168 ft | 258 kts | 313° |
| 2026-04-21 10:18 | -32.92992 | 151.57663 | 4464 ft | 259 kts | 314° |
| 2026-04-21 10:18 | -32.91613 | 151.56272 | 3765 ft | 260 kts | 320° |
| 2026-04-21 10:18 | -32.90234 | 151.54886 | 3086 ft | 260 kts | 317° |
| 2026-04-21 10:19 | -32.88917 | 151.53541 | 2972 ft | 237 kts | 317° |
| 2026-04-21 10:19 | -32.87684 | 151.52315 | 3005 ft | 228 kts | 320° |
| 2026-04-21 10:19 | -32.86266 | 151.51553 | 3010 ft | 222 kts | 351° |
| 2026-04-21 10:19 | -32.84822 | 151.51184 | 2990 ft | 207 kts | 344° |
| 2026-04-21 10:20 | -32.83474 | 151.50821 | 2984 ft | 191 kts | 357° |
| 2026-04-21 10:20 | -32.82192 | 151.50863 | 3007 ft | 185 kts | 6° |
| 2026-04-21 10:20 | -32.80900 | 151.50958 | 2995 ft | 189 kts | 5° |
| 2026-04-21 10:20 | -32.79555 | 151.51141 | 2999 ft | 196 kts | 16° |
| 2026-04-21 10:21 | -32.78273 | 151.51667 | 3009 ft | 196 kts | 22° |
| 2026-04-21 10:21 | -32.76961 | 151.52141 | 3010 ft | 198 kts | 21° |
| 2026-04-21 10:21 | -32.75632 | 151.52637 | 3012 ft | 202 kts | 21° |
| 2026-04-21 10:21 | -32.74277 | 151.53138 | 3009 ft | 205 kts | 20° |
| 2026-04-21 10:22 | -32.72949 | 151.53625 | 3013 ft | 195 kts | 20° |
| 2026-04-21 10:22 | -32.71675 | 151.54089 | 3007 ft | 188 kts | 20° |
| 2026-04-21 10:22 | -32.70427 | 151.54638 | 3004 ft | 196 kts | 26° |
| 2026-04-21 10:22 | -32.69148 | 151.55257 | 3011 ft | 200 kts | 25° |
| 2026-04-21 10:23 | -32.67870 | 151.55913 | 3014 ft | 199 kts | 31° |
| 2026-04-21 10:23 | -32.66630 | 151.56659 | 3013 ft | 201 kts | 30° |
| 2026-04-21 10:23 | -32.65382 | 151.57419 | 3008 ft | 200 kts | 35° |
| 2026-04-21 10:23 | -32.64261 | 151.58369 | 3007 ft | 198 kts | 38° |
| 2026-04-21 10:24 | -32.63163 | 151.59318 | 3005 ft | 197 kts | 44° |
| 2026-04-21 10:24 | -32.62118 | 151.60355 | 2988 ft | 193 kts | 53° |
| 2026-04-21 10:24 | -32.61529 | 151.61599 | 2993 ft | 159 kts | 71° |
| 2026-04-21 10:24 | -32.61285 | 151.62733 | 2887 ft | 130 kts | 111° |
| 2026-04-21 10:25 | -32.61904 | 151.63402 | 2508 ft | 125 kts | 166° |
| 2026-04-21 10:25 | -32.62680 | 151.63728 | 2528 ft | 116 kts | 159° |
| 2026-04-21 10:25 | -32.63513 | 151.64130 | 2635 ft | 141 kts | 159° |
| 2026-04-21 10:25 | -32.64395 | 151.64590 | 2927 ft | 134 kts | 159° |
| 2026-04-21 10:26 | -32.65267 | 151.64794 | 3215 ft | 124 kts | 179° |
| 2026-04-21 10:26 | -32.66112 | 151.64870 | 3310 ft | 127 kts | 154° |
| 2026-04-21 10:26 | -32.66825 | 151.65444 | 3416 ft | 125 kts | 140° |
| 2026-04-21 10:26 | -32.67352 | 151.66200 | 3485 ft | 120 kts | 134° |
| 2026-04-21 10:27 | -32.67910 | 151.66954 | 3340 ft | 126 kts | 135° |
| 2026-04-21 10:27 | -32.68491 | 151.67781 | 3179 ft | 133 kts | 133° |
| 2026-04-21 10:27 | -32.69075 | 151.68603 | 2983 ft | 129 kts | 135° |
| 2026-04-21 10:27 | -32.69655 | 151.69421 | 2814 ft | 130 kts | 134° |
| 2026-04-21 10:28 | -32.70230 | 151.70235 | 2637 ft | 130 kts | 135° |
| 2026-04-21 10:28 | -32.70805 | 151.71043 | 2462 ft | 128 kts | 133° |
| 2026-04-21 10:28 | -32.71369 | 151.71843 | 2296 ft | 125 kts | 136° |
| 2026-04-21 10:28 | -32.71922 | 151.72623 | 2120 ft | 121 kts | 134° |
| 2026-04-21 10:29 | -32.72446 | 151.73367 | 1963 ft | 116 kts | 137° |
| 2026-04-21 10:29 | -32.72976 | 151.74107 | 1812 ft | 120 kts | 134° |
| 2026-04-21 10:29 | -32.73506 | 151.74867 | 1650 ft | 119 kts | 136° |
| 2026-04-21 10:29 | -32.74049 | 151.75620 | 1488 ft | 122 kts | 133° |
| 2026-04-21 10:30 | -32.74597 | 151.76411 | 1329 ft | 125 kts | 135° |
| 2026-04-21 10:30 | -32.75140 | 151.77227 | 1170 ft | 126 kts | 130° |
| 2026-04-21 10:30 | -32.75642 | 151.78083 | 999 ft | 127 kts | 130° |
| 2026-04-21 10:30 | -32.76208 | 151.78899 | 775 ft | 130 kts | 136° |
| 2026-04-21 10:31 | -32.76805 | 151.79689 | 625 ft | 127 kts | 137° |
| 2026-04-21 10:31 | -32.77390 | 151.80466 | 429 ft | 126 kts | 136° |
| 2026-04-21 10:31 | -32.77970 | 151.81238 | 256 ft | 124 kts | 134° |
| 2026-04-21 10:31 | -32.78503 | 151.82000 | 140 ft | 121 kts | 137° |
| 2026-04-21 10:32 | -32.79055 | 151.82748 | 43 ft | 115 kts | 135° |
| 2026-04-21 10:32 | -32.79492 | 151.83355 | 34 ft | 70 kts | 133° |
| 2026-04-21 10:32 | -32.79723 | 151.83667 | 34 ft | 45 kts | 130° |
| 2026-04-21 10:32 | -32.79846 | 151.83834 | 33 ft | 11 kts | 143° |
| 2026-04-21 10:33 | -32.79980 | 151.83846 | 33 ft | 26 kts | 189° |
| 2026-04-21 10:33 | -32.80123 | 151.83822 | 32 ft | 13 kts | 174° |
| 2026-04-21 10:33 | -32.80195 | 151.83866 | 32 ft | 11 kts | 133° |
| 2026-04-21 10:33 | -32.80252 | 151.83943 | 32 ft | 14 kts | 131° |
| 2026-04-21 10:34 | -32.80311 | 151.83959 | 31 ft | 4 kts | 242° |
| 2026-04-21 10:34 | -32.80314 | 151.83952 | 31 ft | 0 kts | 250° |